createdAt,value
2019-02-06T00:00:57.070Z,97.80
2019-02-06T00:03:26.542Z,97.90
2019-02-06T00:05:56.076Z,97.80
2019-02-06T00:08:25.848Z,97.90
2019-02-06T00:10:55.376Z,98.00
2019-02-06T00:13:24.950Z,97.90
2019-02-06T00:15:54.852Z,98.30
2019-02-06T00:18:24.647Z,97.90
2019-02-06T00:20:54.152Z,97.90
2019-02-06T00:23:23.750Z,97.80
2019-02-06T00:25:53.352Z,97.70
2019-02-06T00:28:22.898Z,97.60
2019-02-06T00:30:53.831Z,97.90
2019-02-06T00:33:23.321Z,97.70
2019-02-06T00:35:54.164Z,97.90
2019-02-06T00:38:23.686Z,97.90
2019-02-06T00:40:53.262Z,97.90
2019-02-06T00:43:22.826Z,97.90
2019-02-06T00:45:54.675Z,98.00
2019-02-06T00:48:24.287Z,98.00
2019-02-06T00:50:54.203Z,97.90
2019-02-06T00:53:23.772Z,98.00
2019-02-06T00:55:53.318Z,98.00
2019-02-06T00:58:23.230Z,98.10
2019-02-06T01:00:52.902Z,98.10
2019-02-06T01:03:22.606Z,98.00
2019-02-06T01:05:52.092Z,98.00
2019-02-06T01:08:21.775Z,98.00
2019-02-06T01:10:51.293Z,98.00
2019-02-06T01:13:23.254Z,97.90
2019-02-06T01:15:53.214Z,97.90
2019-02-06T01:18:23.025Z,97.80
2019-02-06T01:20:53.143Z,98.00
2019-02-06T01:23:23.014Z,97.80
2019-02-06T01:25:52.555Z,97.70
2019-02-06T01:28:22.567Z,97.70
2019-02-06T01:30:56.345Z,97.80
2019-02-06T01:33:25.892Z,97.80
2019-02-06T01:35:55.645Z,97.90
2019-02-06T01:38:25.198Z,97.90
2019-02-06T01:40:54.717Z,97.80
2019-02-06T01:43:24.345Z,97.90
2019-02-06T01:45:53.887Z,97.90
2019-02-06T01:48:23.967Z,98.10
2019-02-06T01:50:53.467Z,97.90
2019-02-06T01:53:23.143Z,98.00
2019-02-06T01:55:54.904Z,98.00
2019-02-06T01:58:24.733Z,98.00
2019-02-06T02:00:54.299Z,98.00
2019-02-06T02:03:23.813Z,98.00
2019-02-06T02:06:01.909Z,98.00
2019-02-06T02:08:25.009Z,98.10
2019-02-06T02:10:54.695Z,98.20
2019-02-06T02:13:24.171Z,98.10
2019-02-06T02:15:53.752Z,98.20
2019-02-06T02:18:23.421Z,98.20
2019-02-06T02:20:53.639Z,98.30
2019-02-06T02:23:23.126Z,98.60
2019-02-06T02:25:53.029Z,98.30
2019-02-06T02:28:22.542Z,98.30
2019-02-06T02:30:54.627Z,98.30
2019-02-06T02:33:24.419Z,98.20
2019-02-06T02:35:53.904Z,98.40
2019-02-06T02:38:23.430Z,98.30
2019-02-06T02:40:53.257Z,98.30
2019-02-06T02:43:22.830Z,98.30
2019-02-06T02:45:52.757Z,98.30
2019-02-06T02:48:22.263Z,98.30
2019-02-06T02:50:52.198Z,98.30
2019-02-06T02:53:24.027Z,98.30
2019-02-06T02:55:53.948Z,98.30
2019-02-06T02:58:23.582Z,98.40
2019-02-06T03:01:15.047Z,98.30
2019-02-06T03:04:18.732Z,98.30
2019-02-06T03:06:48.246Z,98.20
2019-02-06T03:09:18.086Z,98.40
2019-02-06T03:11:47.630Z,98.20
2019-02-06T03:14:17.582Z,98.20
2019-02-06T03:16:47.666Z,98.10
2019-02-06T03:19:17.162Z,98.10
2019-02-06T03:21:46.682Z,98.00
2019-02-06T03:24:16.276Z,98.10
2019-02-06T03:26:45.838Z,98.10
2019-02-06T03:29:15.464Z,98.00
2019-02-06T03:31:45.070Z,98.10
2019-02-06T03:34:14.535Z,98.10
2019-02-06T03:36:44.331Z,98.10
2019-02-06T03:39:13.881Z,98.20
2019-02-06T03:41:43.328Z,98.20
2019-02-06T03:44:12.926Z,98.30
2019-02-06T03:46:42.470Z,98.40
2019-02-06T03:49:11.970Z,98.10
2019-02-06T03:51:41.586Z,98.10
2019-02-06T03:54:11.206Z,98.10
2019-02-06T03:56:40.721Z,98.10
2019-02-06T03:59:10.350Z,98.10
2019-02-06T04:01:39.878Z,98.00
2019-02-06T04:04:09.714Z,97.90
2019-02-06T04:06:39.251Z,98.00
2019-02-06T04:09:09.592Z,98.00
2019-02-06T04:11:39.297Z,97.90
2019-02-06T04:14:09.169Z,97.90
2019-02-06T04:16:38.674Z,97.90
2019-02-06T04:19:08.323Z,98.00
2019-02-06T04:21:37.808Z,97.90
2019-02-06T04:24:07.316Z,97.90
2019-02-06T04:26:36.840Z,97.90
2019-02-06T04:29:06.443Z,97.90
2019-02-06T04:31:35.961Z,98.00
2019-02-06T04:34:05.696Z,98.00
2019-02-06T04:36:35.381Z,98.00
2019-02-06T04:39:07.839Z,97.90
2019-02-06T04:41:37.704Z,97.90
2019-02-06T04:44:07.817Z,97.80
2019-02-06T04:46:37.335Z,97.70
2019-02-06T04:49:06.851Z,97.90
2019-02-06T04:51:36.541Z,97.90
2019-02-06T04:54:06.105Z,97.80
2019-02-06T04:56:35.631Z,97.90
2019-02-06T04:59:05.253Z,97.90
2019-02-06T05:01:34.814Z,97.90
2019-02-06T05:04:09.719Z,97.80
2019-02-06T05:06:39.254Z,97.90
2019-02-06T05:09:09.009Z,97.90
2019-02-06T05:11:38.684Z,97.90
2019-02-06T05:14:08.585Z,97.80
2019-02-06T05:16:38.089Z,97.90
2019-02-06T05:19:07.673Z,97.90
2019-02-06T05:21:37.225Z,98.00
2019-02-06T05:24:06.751Z,98.10
2019-02-06T05:26:36.565Z,98.20
2019-02-06T05:29:06.163Z,98.10
2019-02-06T05:31:36.085Z,98.10
2019-02-06T05:34:05.799Z,98.40
2019-02-06T05:36:35.328Z,98.20
2019-02-06T05:39:07.110Z,98.20
2019-02-06T05:41:36.804Z,98.20
2019-02-06T05:44:06.319Z,98.10
2019-02-06T05:46:36.017Z,98.10
2019-02-06T05:49:05.988Z,98.20
2019-02-06T05:51:35.597Z,98.20
2019-02-06T05:54:05.096Z,98.10
2019-02-06T05:56:34.926Z,98.20
2019-02-06T05:59:04.531Z,98.30
2019-02-06T06:01:34.202Z,98.20
2019-02-06T06:04:03.879Z,98.00
2019-02-06T06:06:33.716Z,97.90
2019-02-06T06:09:04.713Z,98.00
2019-02-06T06:11:34.743Z,98.00
2019-02-06T06:14:04.659Z,98.00
2019-02-06T06:16:34.303Z,98.00
2019-02-06T06:19:04.038Z,98.00
2019-02-06T06:21:33.971Z,98.10
2019-02-06T06:24:03.481Z,98.00
2019-02-06T06:26:33.423Z,98.00
2019-02-06T06:29:02.917Z,98.00
2019-02-06T06:31:32.649Z,97.90
2019-02-06T06:34:02.131Z,97.80
2019-02-06T06:36:31.656Z,97.80
2019-02-06T06:39:01.506Z,97.60
2019-02-06T06:41:31.005Z,97.70
2019-02-06T06:44:00.928Z,97.70
2019-02-06T06:46:30.493Z,97.70
2019-02-06T06:49:00.013Z,97.50
2019-02-06T06:51:29.550Z,97.50
2019-02-06T06:53:59.090Z,97.50
2019-02-06T06:56:29.094Z,97.50
2019-02-06T06:58:58.661Z,97.40
2019-02-06T07:01:28.341Z,97.40
2019-02-06T07:03:57.826Z,97.40
2019-02-06T07:06:27.353Z,97.40
2019-02-06T07:08:56.965Z,97.30
2019-02-06T07:11:26.540Z,97.20
2019-02-06T07:13:56.013Z,97.20
2019-02-06T07:16:25.575Z,97.00
2019-02-06T07:18:55.119Z,97.00
2019-02-06T07:21:24.639Z,96.90
2019-02-06T07:23:54.231Z,97.00
2019-02-06T07:26:23.760Z,97.00
2019-02-06T07:28:53.261Z,97.00
2019-02-06T07:31:23.935Z,97.00
2019-02-06T07:33:53.480Z,96.90
2019-02-06T07:36:23.349Z,96.90
2019-02-06T07:38:52.883Z,97.00
2019-02-06T07:41:22.527Z,97.00
2019-02-06T07:43:54.291Z,96.90
2019-02-06T07:46:23.919Z,97.00
2019-02-06T07:48:53.507Z,96.90
2019-02-06T07:51:23.126Z,96.70
2019-02-06T07:53:52.788Z,96.60
2019-02-06T07:56:23.970Z,96.40
2019-02-06T07:58:53.461Z,96.20
2019-02-06T08:01:23.384Z,96.10
2019-02-06T08:03:52.943Z,96.10
2019-02-06T08:06:23.837Z,96.10
2019-02-06T08:08:53.365Z,95.70
2019-02-06T08:11:24.975Z,95.60
2019-02-06T08:13:54.503Z,95.60
2019-02-06T08:16:24.039Z,95.50
2019-02-06T08:18:53.694Z,95.40
2019-02-06T08:21:23.254Z,95.00
2019-02-06T08:23:52.784Z,95.10
2019-02-06T08:26:22.481Z,95.00
2019-02-06T08:28:52.030Z,95.00
2019-02-06T08:31:21.913Z,94.90
2019-02-06T08:33:52.762Z,94.80
2019-02-06T08:36:22.302Z,94.70
2019-02-06T08:38:51.795Z,94.80
2019-02-06T08:41:21.686Z,94.50
2019-02-06T08:43:52.303Z,94.60
2019-02-06T08:46:22.945Z,94.50
2019-02-06T08:48:52.494Z,94.40
2019-02-06T08:51:21.994Z,94.00
2019-02-06T08:53:52.058Z,93.90
2019-02-06T08:56:21.641Z,93.80
2019-02-06T08:58:51.400Z,93.50
2019-02-06T09:01:20.926Z,93.50
2019-02-06T09:03:51.339Z,93.30
2019-02-06T09:06:21.939Z,93.50
2019-02-06T09:08:59.906Z,93.30
2019-02-06T09:11:24.179Z,93.20
2019-02-06T09:13:54.334Z,92.80
2019-02-06T09:16:23.864Z,92.80
2019-02-06T09:18:53.701Z,92.50
2019-02-06T09:21:23.238Z,92.50
2019-02-06T09:23:53.074Z,92.60
2019-02-06T09:26:24.131Z,92.50
2019-02-06T09:28:53.709Z,92.30
2019-02-06T09:31:23.590Z,92.30
2019-02-06T09:33:53.132Z,92.40
2019-02-06T09:36:23.484Z,92.20
2019-02-06T09:38:55.308Z,92.20
2019-02-06T09:41:24.833Z,92.00
2019-02-06T09:43:54.828Z,92.20
2019-02-06T09:46:24.424Z,92.30
2019-02-06T09:48:54.000Z,92.30
2019-02-06T09:51:24.665Z,92.10
2019-02-06T09:53:54.467Z,92.30
2019-02-06T09:56:24.022Z,92.20
2019-02-06T09:58:55.097Z,91.90
2019-02-06T10:01:24.598Z,92.20
2019-02-06T10:03:54.237Z,92.00
2019-02-06T10:06:23.758Z,92.20
2019-02-06T10:08:54.769Z,92.00
2019-02-06T10:11:24.337Z,92.00
2019-02-06T10:13:53.975Z,92.10
2019-02-06T10:16:23.467Z,92.00
2019-02-06T10:18:53.021Z,91.90
2019-02-06T10:21:22.678Z,91.80
2019-02-06T10:23:52.179Z,91.70
2019-02-06T10:26:21.698Z,91.60
2019-02-06T10:28:51.307Z,91.60
2019-02-06T10:31:20.810Z,91.40
2019-02-06T10:33:50.398Z,91.40
2019-02-06T10:36:19.935Z,91.40
2019-02-06T10:38:49.448Z,91.60
2019-02-06T10:41:18.990Z,91.60
2019-02-06T10:43:48.576Z,91.50
2019-02-06T10:46:18.510Z,91.40
2019-02-06T10:48:48.006Z,91.50
2019-02-06T10:51:17.548Z,91.50
2019-02-06T10:53:47.036Z,91.70
2019-02-06T10:56:16.576Z,91.90
2019-02-06T10:58:46.116Z,92.00
2019-02-06T11:01:15.696Z,91.90
2019-02-06T11:03:45.252Z,91.60
2019-02-06T11:06:14.746Z,91.50
2019-02-06T11:08:44.360Z,91.40
2019-02-06T11:11:13.888Z,91.50
2019-02-06T11:13:43.402Z,91.50
2019-02-06T11:16:12.871Z,91.30
2019-02-06T11:18:44.531Z,91.30
2019-02-06T11:21:13.756Z,91.00
2019-02-06T11:23:43.223Z,91.10
2019-02-06T11:26:12.704Z,90.90
2019-02-06T11:28:42.213Z,90.60
2019-02-06T11:31:11.798Z,90.40
2019-02-06T11:33:41.390Z,90.10
2019-02-06T11:36:11.016Z,89.60
2019-02-06T11:38:40.553Z,89.00
2019-02-06T11:41:10.076Z,89.10
2019-02-06T11:43:39.638Z,88.50
2019-02-06T11:46:09.313Z,88.60
2019-02-06T11:48:39.171Z,88.00
2019-02-06T11:51:08.707Z,87.70
2019-02-06T11:53:38.627Z,88.50
2019-02-06T11:56:08.134Z,88.70
2019-02-06T11:58:37.737Z,88.80
2019-02-06T12:01:29.325Z,89.00
2019-02-06T12:03:58.818Z,89.10
2019-02-06T12:06:28.306Z,89.00
2019-02-06T12:08:57.831Z,89.00
2019-02-06T12:11:27.357Z,88.40
2019-02-06T12:13:56.996Z,87.20
2019-02-06T12:16:26.596Z,87.30
2019-02-06T12:18:57.271Z,86.30
2019-02-06T12:21:26.741Z,86.60
2019-02-06T12:23:56.383Z,87.70
2019-02-06T12:26:25.851Z,88.30
2019-02-06T12:28:55.373Z,88.60
2019-02-06T12:31:25.100Z,88.40
2019-02-06T12:33:55.369Z,89.00
2019-02-06T12:36:24.883Z,88.50
2019-02-06T12:38:54.443Z,88.50
2019-02-06T12:41:23.953Z,87.20
2019-02-06T12:43:53.459Z,87.70
2019-02-06T12:46:23.325Z,86.60
2019-02-06T12:48:52.821Z,86.90
2019-02-06T12:51:22.792Z,88.20
2019-02-06T12:53:52.298Z,87.20
2019-02-06T12:56:21.772Z,87.80
2019-02-06T12:58:51.369Z,88.10
2019-02-06T13:01:20.875Z,87.30
2019-02-06T13:03:50.411Z,87.00
2019-02-06T13:06:20.310Z,86.90
2019-02-06T13:08:49.778Z,86.80
2019-02-06T13:11:19.397Z,86.50
2019-02-06T13:13:48.919Z,87.50
2019-02-06T13:16:18.384Z,86.70
2019-02-06T13:18:48.229Z,86.70
2019-02-06T13:21:18.470Z,86.40
2019-02-06T13:23:49.595Z,85.80
2019-02-06T13:26:19.158Z,86.40
2019-02-06T13:28:48.998Z,86.40
2019-02-06T13:31:18.556Z,85.30
2019-02-06T13:33:48.398Z,85.10
2019-02-06T13:36:18.533Z,85.50
2019-02-06T13:38:48.040Z,85.60
2019-02-06T13:41:17.856Z,85.50
2019-02-06T13:43:47.358Z,85.50
2019-02-06T13:46:16.891Z,85.60
2019-02-06T13:48:46.504Z,85.40
2019-02-06T13:51:19.511Z,85.90
2019-02-06T13:53:47.348Z,86.20
2019-02-06T13:56:16.820Z,86.50
2019-02-06T13:58:46.476Z,87.60
2019-02-06T14:01:25.374Z,88.40
2019-02-06T14:03:47.126Z,88.00
2019-02-06T14:06:16.643Z,88.30
2019-02-06T14:08:46.261Z,88.30
2019-02-06T14:11:15.784Z,88.30
2019-02-06T14:13:45.712Z,88.70
2019-02-06T14:16:15.436Z,89.30
2019-02-06T14:18:45.564Z,89.90
2019-02-06T14:21:15.422Z,90.10
2019-02-06T14:23:58.121Z,90.10
2019-02-06T14:26:49.888Z,90.10
2019-02-06T14:30:18.349Z,90.40
2019-02-06T14:33:35.818Z,90.50
2019-02-06T14:36:38.409Z,90.80
2019-02-06T14:39:13.367Z,90.90
2019-02-06T14:42:19.878Z,90.90
2019-02-06T14:45:06.998Z,91.00
2019-02-06T14:48:14.166Z,90.90
2019-02-06T14:51:43.085Z,91.10
2019-02-06T14:55:04.351Z,91.30
2019-02-06T14:58:04.274Z,91.40
2019-02-06T15:00:44.275Z,91.40
2019-02-06T15:03:57.783Z,91.50
2019-02-06T15:07:04.597Z,91.70
2019-02-06T15:10:11.349Z,91.90
2019-02-06T15:13:24.075Z,92.20
2019-02-06T15:16:40.627Z,92.00
2019-02-06T15:19:29.977Z,92.10
2019-02-06T15:23:01.525Z,92.00
2019-02-06T15:25:44.171Z,92.00
2019-02-06T15:28:36.005Z,92.10
2019-02-06T15:31:43.709Z,92.40
2019-02-06T15:34:35.232Z,92.30
2019-02-06T15:37:43.555Z,92.70
2019-02-06T15:40:30.124Z,93.00
2019-02-06T15:43:28.460Z,93.30
2019-02-06T15:46:26.802Z,93.10
2019-02-06T15:49:55.792Z,93.30
2019-02-06T15:52:59.796Z,93.70
2019-02-06T15:55:50.538Z,93.90
2019-02-06T15:59:13.540Z,94.00
2019-02-06T16:02:15.454Z,93.70
2019-02-06T16:05:46.888Z,94.00
2019-02-06T16:09:04.808Z,94.20
2019-02-06T16:12:00.490Z,94.50
2019-02-06T16:14:50.678Z,94.70
2019-02-06T16:17:55.178Z,94.80
2019-02-06T16:21:02.839Z,94.80
2019-02-06T16:24:19.513Z,95.00
2019-02-06T16:27:12.964Z,95.10
2019-02-06T16:30:24.330Z,95.20
2019-02-06T16:33:18.626Z,95.50
2019-02-06T16:35:54.613Z,95.70
2019-02-06T16:38:38.727Z,95.70
2019-02-06T16:42:10.731Z,95.50
2019-02-06T16:45:23.057Z,95.30
2019-02-06T16:48:27.376Z,95.40
2019-02-06T16:51:12.437Z,95.20
2019-02-06T16:54:06.955Z,94.90
2019-02-06T16:57:06.569Z,95.00
2019-02-06T17:00:08.618Z,95.00
2019-02-06T17:03:24.250Z,95.20
2019-02-06T17:06:53.210Z,95.80
2019-02-06T17:10:11.696Z,95.50
2019-02-06T17:13:20.424Z,95.70
2019-02-06T17:16:55.418Z,95.70
2019-02-06T17:19:38.618Z,95.70
2019-02-06T17:22:58.382Z,95.60
2019-02-06T17:26:11.306Z,95.60
2019-02-06T17:28:58.102Z,95.70
2019-02-06T17:32:21.010Z,96.00
2019-02-06T17:35:31.632Z,96.10
2019-02-06T17:38:42.154Z,96.20
2019-02-06T17:41:49.634Z,96.40
2019-02-06T17:44:59.090Z,96.60
2019-02-06T17:48:08.328Z,96.50
2019-02-06T17:50:50.832Z,96.40
2019-02-06T17:53:47.704Z,96.70
2019-02-06T17:56:18.377Z,96.60
2019-02-06T17:58:47.925Z,96.70
2019-02-06T18:01:43.968Z,96.80
2019-02-06T18:04:16.252Z,97.00
2019-02-06T18:06:52.513Z,97.10
2019-02-06T18:09:41.532Z,97.10
2019-02-06T18:12:31.456Z,97.10
2019-02-06T18:15:21.310Z,97.20
2019-02-06T18:18:13.279Z,97.20
2019-02-06T18:20:57.453Z,97.40
2019-02-06T18:23:33.214Z,97.40
2019-02-06T18:26:16.232Z,97.50
2019-02-06T18:28:52.533Z,97.60
2019-02-06T18:31:34.747Z,97.70
2019-02-06T18:34:15.057Z,97.50
2019-02-06T18:36:44.733Z,97.30
2019-02-06T18:39:15.716Z,97.30
2019-02-06T18:41:45.465Z,97.30
2019-02-06T18:44:15.058Z,97.20
2019-02-06T18:46:45.713Z,97.10
2019-02-06T18:49:15.421Z,97.10
2019-02-06T18:51:45.563Z,97.10
2019-02-06T18:54:15.113Z,97.00
2019-02-06T18:56:45.297Z,97.00
2019-02-06T18:59:14.997Z,97.10
2019-02-06T19:01:44.597Z,97.20
2019-02-06T19:04:16.351Z,97.10
2019-02-06T19:06:46.004Z,97.20
2019-02-06T19:09:16.711Z,97.00
2019-02-06T19:11:46.195Z,97.00
2019-02-06T19:14:16.141Z,96.90
2019-02-06T19:16:45.741Z,97.00
2019-02-06T19:19:25.053Z,97.00
2019-02-06T19:21:48.208Z,96.90
2019-02-06T19:24:17.987Z,96.60
2019-02-06T19:26:47.461Z,96.40
2019-02-06T19:29:17.013Z,96.70
2019-02-06T19:31:47.010Z,96.90
2019-02-06T19:34:16.907Z,97.00
2019-02-06T19:36:46.896Z,97.20
2019-02-06T19:39:16.414Z,97.30
2019-02-06T19:41:45.940Z,97.30
2019-02-06T19:44:15.531Z,97.40
2019-02-06T19:46:45.577Z,97.70
2019-02-06T19:49:15.085Z,97.50
2019-02-06T19:51:44.627Z,97.50
2019-02-06T19:54:14.284Z,97.70
2019-02-06T19:56:43.849Z,97.70
2019-02-06T19:59:13.372Z,97.70
2019-02-06T20:01:43.094Z,97.70
2019-02-06T20:04:12.605Z,97.90
2019-02-06T20:06:42.182Z,98.10
2019-02-06T20:09:13.140Z,98.10
2019-02-06T20:11:42.938Z,98.30
2019-02-06T20:14:12.456Z,98.40
2019-02-06T20:16:41.998Z,98.50
2019-02-06T20:19:11.506Z,98.50
2019-02-06T20:21:41.538Z,98.50
2019-02-06T20:24:11.180Z,98.50
2019-02-06T20:26:40.710Z,98.50
2019-02-06T20:29:10.380Z,98.70
2019-02-06T20:31:40.099Z,98.70
2019-02-06T20:34:09.796Z,98.70
2019-02-06T20:36:39.288Z,98.70
2019-02-06T20:39:10.079Z,98.80
2019-02-06T20:41:39.570Z,98.70
2019-02-06T20:44:09.036Z,98.80
2019-02-06T20:46:38.639Z,98.90
2019-02-06T20:49:08.169Z,99.00
2019-02-06T20:51:37.855Z,98.90
2019-02-06T20:54:07.858Z,99.10
2019-02-06T20:56:37.722Z,99.20
2019-02-06T20:59:07.199Z,99.30
2019-02-06T21:01:37.690Z,99.30
2019-02-06T21:04:07.602Z,99.20
2019-02-06T21:06:37.659Z,99.30
2019-02-06T21:09:12.791Z,99.30
2019-02-06T21:11:42.773Z,99.10
2019-02-06T21:14:12.329Z,99.00
2019-02-06T21:16:41.837Z,99.10
2019-02-06T21:19:11.429Z,99.30
2019-02-06T21:21:40.975Z,99.10
2019-02-06T21:24:10.893Z,99.10
2019-02-06T21:26:40.451Z,99.20
2019-02-06T21:29:10.202Z,99.30
2019-02-06T21:31:39.774Z,99.30
2019-02-06T21:34:09.278Z,99.60
2019-02-06T21:36:38.881Z,99.50
2019-02-06T21:39:10.485Z,99.40
2019-02-06T21:41:40.220Z,99.50
2019-02-06T21:44:09.766Z,99.80
2019-02-06T21:46:39.300Z,99.60
2019-02-06T21:49:08.835Z,99.50
2019-02-06T21:51:38.370Z,99.50
2019-02-06T21:54:08.437Z,99.50
2019-02-06T21:56:38.028Z,99.80
2019-02-06T21:59:11.767Z,99.70
2019-02-06T22:01:41.675Z,99.80
2019-02-06T22:04:11.159Z,99.80
2019-02-06T22:06:42.369Z,99.80
2019-02-06T22:09:13.394Z,99.90
2019-02-06T22:11:42.956Z,99.80
2019-02-06T22:14:12.482Z,99.80
2019-02-06T22:16:42.133Z,99.70
2019-02-06T22:19:11.682Z,99.90
2019-02-06T22:21:41.496Z,99.90
2019-02-06T22:24:11.020Z,99.90
2019-02-06T22:26:40.709Z,99.90
2019-02-06T22:29:10.232Z,99.90
2019-02-06T22:31:39.855Z,99.90
2019-02-06T22:34:09.501Z,99.90
2019-02-06T22:36:39.066Z,99.90
2019-02-06T22:39:12.014Z,99.90
2019-02-06T22:41:41.521Z,99.90
2019-02-06T22:44:11.126Z,99.90
2019-02-06T22:46:40.670Z,99.90
2019-02-06T22:49:10.744Z,99.90
2019-02-06T22:51:40.239Z,99.90
2019-02-06T22:54:09.957Z,99.90
2019-02-06T22:56:41.237Z,99.90
2019-02-06T22:59:10.602Z,99.90
2019-02-06T23:01:47.926Z,99.90
2019-02-06T23:04:17.485Z,99.90
2019-02-06T23:06:47.035Z,99.90
2019-02-06T23:09:16.530Z,99.90
2019-02-06T23:11:46.239Z,99.90
2019-02-06T23:14:17.818Z,99.90
2019-02-06T23:16:47.034Z,99.90
2019-02-06T23:19:16.504Z,99.90
2019-02-06T23:21:46.206Z,99.90
2019-02-06T23:24:15.710Z,99.90
2019-02-06T23:26:45.209Z,99.90
2019-02-06T23:29:14.769Z,99.90
2019-02-06T23:31:44.285Z,99.90
2019-02-06T23:34:13.840Z,99.90
2019-02-06T23:36:43.433Z,99.90
2019-02-06T23:39:16.044Z,99.90
2019-02-06T23:41:45.727Z,99.90
2019-02-06T23:44:15.930Z,99.90
2019-02-06T23:46:45.392Z,99.90
2019-02-06T23:49:14.947Z,99.90
2019-02-06T23:51:44.738Z,99.90
2019-02-06T23:54:14.257Z,99.90
2019-02-06T23:56:43.929Z,99.90
2019-02-06T23:59:13.735Z,99.90
